Hauptseite
METAR-TAF:

METAR-TAF

Flughäfen :

Flughafen Touquet-Côte d’Opale

Le Touquet, Frankreich

Breite: 50-30-53N, Länge: 001-37-39E, Höhe: 6 m

Beobachtung

Neuester Wetterbericht von vor 22 Minuten, um 13:30 UTC
Wind 11 kt aus West, variierte zwischen Südwest und Nordwest
Temperatur 16°C
Luftfeuchtigkeit 72%
Luftdruck 1011 hPa
Sichtweite 10 km oder mehr
keine Wolken unter 1500 m und keine Kumulonimbus oder Gewitterwolken

METAR: LFAT 271330Z AUTO 26011KT 220V310 CAVOK 16/11 Q1011 TEMPO 26015G25KT

Zeit: 15:52 (13:52 UTC)

Prognose

Neuester Wetterbericht von vor 2 Stunden und 52 Minuten, um 11:00 UTC
Gültige Prognose vom 27 um 12 UTC bis 27 um 21 UTC
Wind 10 kt aus West
Sichtweite 10 km oder mehr
Aufgelockert bewölkt in der Höhe von 4000 ft
Zeitweise
vom 27 um 13 UTC bis 27 um 18 UTC
Wind 15 kt aus West, Böen bis zu 25 kt

TAF: LFAT 271100Z 2712/2721 27010KT 9999 SCT040 TEMPO 2713/2718 26015G25KT

Wetterbeobachtungen und Prognosen von mehr als 4000 Flughäfen (METAR und TAF Bericht).

Die verfügbaren Stationen werden durch gelbe und rote Markierungen auf der Karte dargestellt.

Führen Sie die Maus auf sie, um den Namen der Station zu sehen.

Darauf klicken, um die Beobachtung von Wetterbeobachtungen und Prognosen zu sehen.

Um die Karte zu ändern : klicken Sie auf den grünen Tasten mit einem schwarzen Kreuz Zum Vergrößern, auf den grünen Button mit einem Gedankenstrich zu verkleinern, oder auf die grünen Pfeile für benachbarte Karten.


METAR-TAF: